createdAt,value
2019-02-24T00:01:29.651Z,56.30
2019-02-24T00:03:57.300Z,56.70
2019-02-24T00:06:24.948Z,56.40
2019-02-24T00:08:52.436Z,56.60
2019-02-24T00:11:19.972Z,56.30
2019-02-24T00:13:47.759Z,56.60
2019-02-24T00:16:15.664Z,56.80
2019-02-24T00:18:44.371Z,56.80
2019-02-24T00:21:13.784Z,57.20
2019-02-24T00:23:41.500Z,57.30
2019-02-24T00:26:09.049Z,58.20
2019-02-24T00:28:36.596Z,58.10
2019-02-24T00:31:04.158Z,57.50
2019-02-24T00:33:31.776Z,58.10
2019-02-24T00:35:59.426Z,57.80
2019-02-24T00:38:26.972Z,58.00
2019-02-24T00:40:54.485Z,58.10
2019-02-24T00:43:22.029Z,58.00
2019-02-24T00:45:49.622Z,57.50
2019-02-24T00:48:17.231Z,57.30
2019-02-24T00:50:44.828Z,57.70
2019-02-24T00:53:13.665Z,58.20
2019-02-24T00:55:41.789Z,58.00
2019-02-24T00:58:15.901Z,58.60
2019-02-24T01:00:38.774Z,59.40
2019-02-24T01:03:06.332Z,59.80
2019-02-24T01:05:33.947Z,60.00
2019-02-24T01:08:01.487Z,60.30
2019-02-24T01:10:30.915Z,59.80
2019-02-24T01:12:58.437Z,59.80
2019-02-24T01:15:26.002Z,60.00
2019-02-24T01:17:55.547Z,60.40
2019-02-24T01:20:23.149Z,60.40
2019-02-24T01:22:50.785Z,60.40
2019-02-24T01:25:20.230Z,60.50
2019-02-24T01:27:47.937Z,60.00
2019-02-24T01:30:16.663Z,60.50
2019-02-24T01:32:45.403Z,60.20
2019-02-24T01:35:13.115Z,60.10
2019-02-24T01:37:40.699Z,59.90
2019-02-24T01:40:08.332Z,60.30
2019-02-24T01:42:36.013Z,61.30
2019-02-24T01:45:04.924Z,60.50
2019-02-24T01:47:33.810Z,60.90
2019-02-24T01:50:02.503Z,60.90
2019-02-24T01:52:30.225Z,60.60
2019-02-24T01:54:57.979Z,59.40
2019-02-24T01:57:25.632Z,59.30
2019-02-24T01:59:53.280Z,59.60
2019-02-24T02:02:20.811Z,59.30
2019-02-24T02:04:48.506Z,59.20
2019-02-24T02:07:16.140Z,58.40
2019-02-24T02:09:43.693Z,58.20
2019-02-24T02:12:13.222Z,58.20
2019-02-24T02:14:40.734Z,59.00
2019-02-24T02:17:09.582Z,59.20
2019-02-24T02:19:38.495Z,59.20
2019-02-24T02:22:06.086Z,58.00
2019-02-24T02:24:33.677Z,58.10
2019-02-24T02:27:01.304Z,57.90
2019-02-24T02:29:28.948Z,58.00
2019-02-24T02:31:57.625Z,58.30
2019-02-24T02:34:25.258Z,57.60
2019-02-24T02:36:54.632Z,57.40
2019-02-24T02:39:22.187Z,57.80
2019-02-24T02:41:50.039Z,57.90
2019-02-24T02:44:19.369Z,58.10
2019-02-24T02:46:47.356Z,58.00
2019-02-24T02:49:14.878Z,58.00
2019-02-24T02:51:42.517Z,57.60
2019-02-24T02:54:10.114Z,57.60
2019-02-24T02:56:37.740Z,57.70
2019-02-24T02:59:06.291Z,57.60
2019-02-24T03:01:33.757Z,58.10
2019-02-24T03:04:01.262Z,58.60
2019-02-24T03:06:40.255Z,59.60
2019-02-24T03:09:10.076Z,59.20
2019-02-24T03:11:37.820Z,59.90
2019-02-24T03:14:05.316Z,61.20
2019-02-24T03:16:32.910Z,60.70
2019-02-24T03:19:00.531Z,60.90
2019-02-24T03:21:28.103Z,60.60
2019-02-24T03:23:55.742Z,60.10
2019-02-24T03:26:23.222Z,61.60
2019-02-24T03:28:50.840Z,61.60
2019-02-24T03:31:19.914Z,61.70
2019-02-24T03:33:47.578Z,61.80
2019-02-24T03:36:16.449Z,62.60
2019-02-24T03:38:44.056Z,61.50
2019-02-24T03:41:13.548Z,60.40
2019-02-24T03:43:41.148Z,60.50
2019-02-24T03:46:08.725Z,60.00
2019-02-24T03:48:36.753Z,60.70
2019-02-24T03:51:04.299Z,59.70
2019-02-24T03:53:31.802Z,59.60
2019-02-24T03:55:59.394Z,59.80
2019-02-24T03:58:26.980Z,58.90
2019-02-24T04:00:54.604Z,58.50
2019-02-24T04:03:23.158Z,57.90
2019-02-24T04:05:50.837Z,57.60
2019-02-24T04:08:18.317Z,56.90
2019-02-24T04:10:45.951Z,56.60
2019-02-24T04:13:13.766Z,56.70
2019-02-24T04:15:41.388Z,56.70
2019-02-24T04:18:10.111Z,56.90
2019-02-24T04:20:40.014Z,56.80
2019-02-24T04:23:07.583Z,56.10
2019-02-24T04:25:35.207Z,56.50
2019-02-24T04:28:02.820Z,56.70
2019-02-24T04:30:32.358Z,56.90
2019-02-24T04:33:01.884Z,56.50
2019-02-24T04:35:29.593Z,56.80
2019-02-24T04:37:57.227Z,56.60
2019-02-24T04:40:24.797Z,57.50
2019-02-24T04:42:52.527Z,56.80
2019-02-24T04:45:20.252Z,56.60
2019-02-24T04:47:47.985Z,56.40
2019-02-24T04:50:15.610Z,56.50
2019-02-24T04:52:43.536Z,56.40
2019-02-24T04:55:11.197Z,56.20
2019-02-24T04:57:40.551Z,56.30
2019-02-24T05:00:08.195Z,56.30
2019-02-24T05:02:35.717Z,56.20
2019-02-24T05:05:03.898Z,56.30
2019-02-24T05:07:31.348Z,56.40
2019-02-24T05:09:59.006Z,56.70
2019-02-24T05:12:26.582Z,56.60
2019-02-24T05:14:55.459Z,56.90
2019-02-24T05:17:23.101Z,57.30
2019-02-24T05:19:51.708Z,57.00
2019-02-24T05:22:19.217Z,58.00
2019-02-24T05:24:46.787Z,58.00
2019-02-24T05:27:14.477Z,57.70
2019-02-24T05:29:45.934Z,57.60
2019-02-24T05:32:11.511Z,57.90
2019-02-24T05:34:39.158Z,59.10
2019-02-24T05:37:08.501Z,58.90
2019-02-24T05:39:36.119Z,59.00
2019-02-24T05:42:03.886Z,58.80
2019-02-24T05:44:31.472Z,59.90
2019-02-24T05:46:59.009Z,60.00
2019-02-24T05:49:26.573Z,59.20
2019-02-24T05:51:54.087Z,59.00
2019-02-24T05:54:21.637Z,58.80
2019-02-24T05:56:49.180Z,58.20
2019-02-24T05:59:17.865Z,58.40
2019-02-24T06:01:45.472Z,58.30
2019-02-24T06:04:13.161Z,58.00
2019-02-24T06:06:40.860Z,57.70
2019-02-24T06:09:08.532Z,57.70
2019-02-24T06:11:36.156Z,57.80
2019-02-24T06:14:04.064Z,58.00
2019-02-24T06:16:31.714Z,57.70
2019-02-24T06:18:59.359Z,57.50
2019-02-24T06:21:27.040Z,57.50
2019-02-24T06:23:54.657Z,57.50
2019-02-24T06:26:23.018Z,57.60
2019-02-24T06:28:50.519Z,58.10
2019-02-24T06:31:18.286Z,58.20
2019-02-24T06:33:45.950Z,58.20
2019-02-24T06:36:13.629Z,58.80
2019-02-24T06:38:44.448Z,59.60
2019-02-24T06:41:13.837Z,59.70
2019-02-24T06:43:41.445Z,59.80
2019-02-24T06:46:09.065Z,59.50
2019-02-24T06:48:37.803Z,59.00
2019-02-24T06:51:07.270Z,59.10
2019-02-24T06:53:34.912Z,58.80
2019-02-24T06:56:05.425Z,59.10
2019-02-24T06:58:33.088Z,59.60
2019-02-24T07:01:00.730Z,59.80
2019-02-24T07:03:28.497Z,60.40
2019-02-24T07:05:57.270Z,60.50
2019-02-24T07:08:24.898Z,60.30
2019-02-24T07:10:52.847Z,59.80
2019-02-24T07:13:21.589Z,59.40
2019-02-24T07:15:49.124Z,58.80
2019-02-24T07:18:17.985Z,58.20
2019-02-24T07:23:13.843Z,57.40
2019-02-24T07:25:41.950Z,57.20
2019-02-24T07:28:18.131Z,57.40
2019-02-24T07:30:48.777Z,57.10
2019-02-24T07:33:18.378Z,57.10
2019-02-24T07:35:46.463Z,57.40
2019-02-24T07:38:15.959Z,57.40
2019-02-24T07:40:43.529Z,57.50
2019-02-24T07:43:11.189Z,57.30
2019-02-24T07:45:38.689Z,57.60
2019-02-24T07:48:06.399Z,57.60
2019-02-24T07:50:33.978Z,57.30
2019-02-24T07:53:01.769Z,56.90
2019-02-24T07:55:29.464Z,56.60
2019-02-24T07:58:00.550Z,56.60
2019-02-24T08:00:32.315Z,56.20
2019-02-24T08:02:57.649Z,56.90
2019-02-24T08:05:25.292Z,56.30
2019-02-24T08:07:52.926Z,56.10
2019-02-24T08:10:20.511Z,56.10
2019-02-24T08:12:49.194Z,56.10
2019-02-24T08:15:16.831Z,56.10
2019-02-24T08:17:44.512Z,55.80
2019-02-24T08:20:13.152Z,56.00
2019-02-24T08:22:40.852Z,55.90
2019-02-24T08:25:08.457Z,55.40
2019-02-24T08:27:37.883Z,55.40
2019-02-24T08:30:06.870Z,55.60
2019-02-24T08:32:34.780Z,55.60
2019-02-24T08:35:02.411Z,55.00
2019-02-24T08:37:30.108Z,54.80
2019-02-24T08:39:57.776Z,54.50
2019-02-24T08:42:26.579Z,54.70
2019-02-24T08:44:54.335Z,54.20
2019-02-24T08:47:23.761Z,54.20
2019-02-24T08:49:51.495Z,53.50
2019-02-24T08:52:20.243Z,53.80
2019-02-24T08:54:47.854Z,53.90
2019-02-24T08:57:15.438Z,54.10
2019-02-24T08:59:43.443Z,54.00
2019-02-24T09:02:11.308Z,52.80
2019-02-24T09:04:38.966Z,52.80
2019-02-24T09:07:19.225Z,52.80
2019-02-24T09:09:50.601Z,50.70
2019-02-24T09:12:18.339Z,51.40
2019-02-24T09:14:45.977Z,50.00
2019-02-24T09:17:26.103Z,50.00
2019-02-24T09:19:53.796Z,47.20
2019-02-24T09:22:21.517Z,47.40
2019-02-24T09:24:50.291Z,45.60
2019-02-24T09:27:17.790Z,47.60
2019-02-24T09:29:45.384Z,49.60
2019-02-24T09:32:14.849Z,51.10
2019-02-24T09:34:55.411Z,51.30
2019-02-24T09:37:23.209Z,50.60
2019-02-24T09:39:50.811Z,49.50
2019-02-24T09:42:18.526Z,49.20
2019-02-24T09:44:46.196Z,48.90
2019-02-24T09:47:15.024Z,48.70
2019-02-24T09:49:42.706Z,48.90
2019-02-24T09:52:10.440Z,47.60
2019-02-24T09:54:39.358Z,46.80
2019-02-24T09:57:06.966Z,46.10
2019-02-24T09:59:35.759Z,46.80
2019-02-24T10:02:04.668Z,46.70
2019-02-24T10:04:32.362Z,46.90
2019-02-24T10:07:01.516Z,47.00
2019-02-24T10:09:29.319Z,46.00
2019-02-24T10:11:56.966Z,45.30
2019-02-24T10:14:24.614Z,45.00
2019-02-24T10:16:53.983Z,44.40
2019-02-24T10:19:21.520Z,43.40
2019-02-24T10:21:49.182Z,43.20
2019-02-24T10:24:17.002Z,43.30
2019-02-24T10:26:44.673Z,40.30
2019-02-24T10:29:12.291Z,37.80
2019-02-24T10:31:39.962Z,40.20
2019-02-24T10:34:07.759Z,37.90
2019-02-24T10:36:36.543Z,37.30
2019-02-24T10:39:04.612Z,37.60
2019-02-24T10:41:34.268Z,37.90
2019-02-24T10:44:01.894Z,37.60
2019-02-24T10:46:29.558Z,36.40
2019-02-24T10:49:03.313Z,37.50
2019-02-24T10:51:26.761Z,37.10
2019-02-24T10:53:54.416Z,38.60
2019-02-24T10:56:22.055Z,36.40
2019-02-24T10:58:49.726Z,37.30
2019-02-24T11:01:17.358Z,36.40
2019-02-24T11:03:45.110Z,35.90
2019-02-24T11:06:13.001Z,35.80
2019-02-24T11:08:40.744Z,37.10
2019-02-24T11:11:08.424Z,36.50
2019-02-24T11:13:37.447Z,36.30
2019-02-24T11:16:05.071Z,35.00
2019-02-24T11:18:35.227Z,32.10
2019-02-24T11:21:02.920Z,32.80
2019-02-24T11:23:31.443Z,34.90
2019-02-24T11:26:02.880Z,35.70
2019-02-24T11:28:32.189Z,33.20
2019-02-24T11:31:00.403Z,35.80
2019-02-24T11:33:29.114Z,34.80
2019-02-24T11:35:57.130Z,32.40
2019-02-24T11:38:24.855Z,31.20
2019-02-24T11:40:52.454Z,32.20
2019-02-24T11:43:20.121Z,32.00
2019-02-24T11:45:48.896Z,34.40
2019-02-24T11:48:36.409Z,33.20
2019-02-24T11:51:04.036Z,35.00
2019-02-24T11:53:31.714Z,34.10
2019-02-24T11:55:59.445Z,33.80
2019-02-24T11:58:27.142Z,33.50
2019-02-24T12:00:54.664Z,34.10
2019-02-24T12:03:22.419Z,34.10
2019-02-24T12:05:51.690Z,32.80
2019-02-24T12:08:22.459Z,31.80
2019-02-24T12:10:52.803Z,32.70
2019-02-24T12:13:21.877Z,32.60
2019-02-24T12:15:49.553Z,33.40
2019-02-24T12:18:17.334Z,34.10
2019-02-24T12:20:45.074Z,33.40
2019-02-24T12:23:14.524Z,31.70
2019-02-24T12:25:42.210Z,32.00
2019-02-24T12:28:09.815Z,32.30
2019-02-24T12:30:37.639Z,31.20
2019-02-24T12:33:05.481Z,30.70
2019-02-24T12:35:33.137Z,31.50
2019-02-24T12:38:02.541Z,32.20
2019-02-24T12:40:30.067Z,30.10
2019-02-24T12:42:58.176Z,31.30
2019-02-24T12:45:25.818Z,30.00
2019-02-24T12:47:53.520Z,29.80
2019-02-24T12:50:21.069Z,30.00
2019-02-24T12:52:48.679Z,29.70
2019-02-24T12:55:16.415Z,29.20
2019-02-24T12:57:44.151Z,29.20
2019-02-24T13:00:14.994Z,29.70
2019-02-24T13:02:42.687Z,29.10
2019-02-24T13:05:10.310Z,30.50
2019-02-24T13:07:38.240Z,29.90
2019-02-24T13:10:08.013Z,28.50
2019-02-24T13:12:36.925Z,28.90
2019-02-24T13:15:05.047Z,28.30
2019-02-24T13:17:34.040Z,28.70
2019-02-24T13:20:01.678Z,27.80
2019-02-24T13:22:29.510Z,28.70
2019-02-24T13:24:57.170Z,29.20
2019-02-24T13:27:24.958Z,29.30
2019-02-24T13:29:52.736Z,30.00
2019-02-24T13:32:20.348Z,29.30
2019-02-24T13:34:48.164Z,29.00
2019-02-24T13:37:16.060Z,28.40
2019-02-24T13:39:43.829Z,26.40
2019-02-24T13:42:11.689Z,26.30
2019-02-24T13:44:39.376Z,24.30
2019-02-24T13:47:07.212Z,25.40
2019-02-24T13:49:36.560Z,26.60
2019-02-24T13:52:04.230Z,27.60
2019-02-24T13:54:34.504Z,26.90
2019-02-24T13:57:04.279Z,26.40
2019-02-24T13:59:35.176Z,26.20
2019-02-24T14:02:04.592Z,26.70
2019-02-24T14:04:36.391Z,27.00
2019-02-24T14:07:04.178Z,26.30
2019-02-24T14:09:32.780Z,25.90
2019-02-24T14:12:00.373Z,25.70
2019-02-24T14:14:29.731Z,25.40
2019-02-24T14:16:57.605Z,26.60
2019-02-24T14:19:25.506Z,25.90
2019-02-24T14:21:53.133Z,26.70
2019-02-24T14:24:40.323Z,26.90
2019-02-24T14:27:07.994Z,26.90
2019-02-24T14:29:35.741Z,25.70
2019-02-24T14:32:03.384Z,26.20
2019-02-24T14:34:31.030Z,25.80
2019-02-24T14:36:59.545Z,25.80
2019-02-24T14:39:27.298Z,24.80
2019-02-24T14:41:55.237Z,24.20
2019-02-24T14:44:22.972Z,23.50
2019-02-24T14:46:50.659Z,22.70
2019-02-24T14:49:19.405Z,22.50
2019-02-24T14:51:47.140Z,22.40
2019-02-24T14:54:15.896Z,22.10
2019-02-24T14:56:44.742Z,22.70
2019-02-24T14:59:12.483Z,23.50
2019-02-24T15:01:40.132Z,23.80
2019-02-24T15:04:09.349Z,24.50
2019-02-24T15:06:38.720Z,24.20
2019-02-24T15:09:06.575Z,24.80
2019-02-24T15:11:35.708Z,25.40
2019-02-24T15:14:03.506Z,25.10
2019-02-24T15:16:32.229Z,26.20
2019-02-24T15:19:00.019Z,26.90
2019-02-24T15:21:27.633Z,25.80
2019-02-24T15:23:55.310Z,24.40
2019-02-24T15:26:24.855Z,22.30
2019-02-24T15:28:54.141Z,20.80
2019-02-24T15:31:23.609Z,19.00
2019-02-24T15:33:51.226Z,19.60
2019-02-24T15:36:18.847Z,21.00
2019-02-24T15:38:46.499Z,20.50
2019-02-24T15:41:14.263Z,20.00
2019-02-24T15:43:41.793Z,21.80
2019-02-24T15:46:09.457Z,22.30
2019-02-24T15:48:37.126Z,23.70
2019-02-24T15:51:04.728Z,24.40
2019-02-24T15:53:32.328Z,24.70
2019-02-24T15:56:01.254Z,25.50
2019-02-24T15:58:28.885Z,26.40
2019-02-24T16:00:56.543Z,25.10
2019-02-24T16:03:24.102Z,26.30
2019-02-24T16:06:04.624Z,29.40
2019-02-24T16:08:32.327Z,30.80
2019-02-24T16:10:59.903Z,31.60
2019-02-24T16:13:29.404Z,30.90
2019-02-24T16:15:57.123Z,32.00
2019-02-24T16:18:26.020Z,33.20
2019-02-24T16:20:53.479Z,36.10
2019-02-24T16:23:21.060Z,35.20
2019-02-24T16:25:48.685Z,34.10
2019-02-24T16:28:16.181Z,35.10
2019-02-24T16:30:43.968Z,36.40
2019-02-24T16:33:11.588Z,35.20
2019-02-24T16:35:39.353Z,35.80
2019-02-24T16:38:06.946Z,35.30
2019-02-24T16:40:34.540Z,34.60
2019-02-24T16:43:02.189Z,37.60
2019-02-24T16:45:30.110Z,36.60
2019-02-24T16:47:58.793Z,36.40
2019-02-24T16:50:26.531Z,35.80
2019-02-24T16:52:54.143Z,37.80
2019-02-24T16:55:21.792Z,38.40
2019-02-24T16:57:49.466Z,36.60
2019-02-24T17:00:18.145Z,38.80
2019-02-24T17:02:47.761Z,39.30
2019-02-24T17:05:15.471Z,38.70
2019-02-24T17:07:44.503Z,38.60
2019-02-24T17:10:13.076Z,40.00
2019-02-24T17:12:42.530Z,40.70
2019-02-24T17:15:10.332Z,40.40
2019-02-24T17:17:37.931Z,40.00
2019-02-24T17:20:07.050Z,41.00
2019-02-24T17:22:34.864Z,42.20
2019-02-24T17:25:04.123Z,42.30
2019-02-24T17:27:31.786Z,43.20
2019-02-24T17:29:59.399Z,44.20
2019-02-24T17:32:26.996Z,44.90
2019-02-24T17:34:54.684Z,45.90
2019-02-24T17:37:22.375Z,47.00
2019-02-24T17:39:50.055Z,46.40
2019-02-24T17:42:17.663Z,47.60
2019-02-24T17:44:45.190Z,46.80
2019-02-24T17:47:12.806Z,47.00
2019-02-24T17:49:40.507Z,47.40
2019-02-24T17:52:08.159Z,47.40
2019-02-24T17:54:35.805Z,47.10
2019-02-24T17:57:03.465Z,47.40
2019-02-24T17:59:39.973Z,47.80
2019-02-24T18:02:00.599Z,47.80
2019-02-24T18:04:28.248Z,48.10
2019-02-24T18:06:55.986Z,48.60
2019-02-24T18:09:23.626Z,47.60
2019-02-24T18:11:51.205Z,46.80
2019-02-24T18:14:18.946Z,46.60
2019-02-24T18:16:46.600Z,46.90
2019-02-24T18:19:14.289Z,46.40
2019-02-24T18:21:42.020Z,46.00
2019-02-24T18:24:09.744Z,46.60
2019-02-24T18:26:37.390Z,46.60
2019-02-24T18:29:05.104Z,46.90
2019-02-24T18:31:32.472Z,48.10
2019-02-24T18:33:59.782Z,47.70
2019-02-24T18:36:27.148Z,48.10
2019-02-24T18:38:54.462Z,47.70
2019-02-24T18:41:21.767Z,48.90
2019-02-24T18:43:49.164Z,49.90
2019-02-24T18:46:19.076Z,49.40
2019-02-24T18:48:48.777Z,49.00
2019-02-24T18:51:16.291Z,48.80
2019-02-24T18:53:43.831Z,48.90
2019-02-24T18:56:13.014Z,48.80
2019-02-24T18:58:42.420Z,48.50
2019-02-24T19:01:09.753Z,48.10
2019-02-24T19:03:37.066Z,48.40
2019-02-24T19:06:04.435Z,48.40
2019-02-24T19:08:32.941Z,48.90
2019-02-24T19:11:00.445Z,49.30
2019-02-24T19:13:27.916Z,47.90
2019-02-24T19:15:55.216Z,48.20
2019-02-24T19:18:23.621Z,48.50
2019-02-24T19:20:51.114Z,49.10
2019-02-24T19:23:18.444Z,49.20
2019-02-24T19:25:45.885Z,48.70
2019-02-24T19:28:13.220Z,48.70
2019-02-24T19:30:40.637Z,48.40
2019-02-24T19:33:07.971Z,48.60
2019-02-24T19:35:35.443Z,50.20
2019-02-24T19:38:02.708Z,49.90
2019-02-24T19:40:30.147Z,50.60
2019-02-24T19:42:57.821Z,51.20
2019-02-24T19:45:25.669Z,51.80
2019-02-24T19:47:52.949Z,52.50
2019-02-24T19:50:20.674Z,52.00
2019-02-24T19:52:48.252Z,51.70
2019-02-24T19:55:15.706Z,51.60
2019-02-24T19:57:43.223Z,51.70
2019-02-24T20:00:16.320Z,52.20
2019-02-24T20:02:43.693Z,53.00
2019-02-24T20:05:12.322Z,53.20
2019-02-24T20:07:46.397Z,53.20
2019-02-24T20:10:15.773Z,53.40
2019-02-24T20:12:43.096Z,53.60
2019-02-24T20:15:11.428Z,53.80
2019-02-24T20:17:38.890Z,54.10
2019-02-24T20:20:07.239Z,54.10
2019-02-24T20:22:35.657Z,54.00
2019-02-24T20:25:03.737Z,54.00
2019-02-24T20:27:33.056Z,54.10
2019-02-24T20:30:04.524Z,53.90
2019-02-24T20:32:34.970Z,53.90
2019-02-24T20:35:02.401Z,54.00
2019-02-24T20:37:29.688Z,53.80
2019-02-24T20:39:58.053Z,53.70
2019-02-24T20:42:25.543Z,53.80
2019-02-24T20:44:52.953Z,53.60
2019-02-24T20:47:20.247Z,54.00
2019-02-24T20:49:47.633Z,53.90
2019-02-24T20:52:15.041Z,53.90
2019-02-24T20:54:42.491Z,53.00
2019-02-24T20:57:09.867Z,53.20
2019-02-24T20:59:37.236Z,53.20
2019-02-24T21:02:05.612Z,53.70
2019-02-24T21:04:33.080Z,53.70
2019-02-24T21:07:00.652Z,54.00
2019-02-24T21:09:28.027Z,54.60
2019-02-24T21:11:57.232Z,55.00
2019-02-24T21:14:24.525Z,55.50
2019-02-24T21:16:51.862Z,55.80
2019-02-24T21:19:19.172Z,55.20
2019-02-24T21:21:46.520Z,55.20
2019-02-24T21:24:13.848Z,55.30
2019-02-24T21:26:44.398Z,55.00
2019-02-24T21:29:11.804Z,55.50
2019-02-24T21:31:40.900Z,55.80
2019-02-24T21:34:08.363Z,56.10
2019-02-24T21:36:35.632Z,56.50
2019-02-24T21:39:04.429Z,56.00
2019-02-24T21:41:36.231Z,55.60
2019-02-24T21:44:04.122Z,55.30
2019-02-24T21:46:31.793Z,55.70
2019-02-24T21:49:00.450Z,56.20
2019-02-24T21:51:27.909Z,56.40
2019-02-24T21:53:55.532Z,56.20
2019-02-24T21:56:23.047Z,55.60
2019-02-24T21:58:51.414Z,55.30
2019-02-24T22:01:19.824Z,55.50
2019-02-24T22:03:47.138Z,55.50
2019-02-24T22:06:14.466Z,55.50
2019-02-24T22:08:54.612Z,55.90
2019-02-24T22:11:22.000Z,55.30
2019-02-24T22:13:49.448Z,55.50
2019-02-24T22:16:17.837Z,56.10
2019-02-24T22:18:45.269Z,56.50
2019-02-24T22:21:12.564Z,57.20
2019-02-24T22:23:41.006Z,57.00
2019-02-24T22:26:08.366Z,57.50
2019-02-24T22:28:35.628Z,57.40
2019-02-24T22:31:02.921Z,57.30
2019-02-24T22:33:30.297Z,56.70
2019-02-24T22:35:57.665Z,57.10
2019-02-24T22:38:26.065Z,56.80
2019-02-24T22:40:54.553Z,57.20
2019-02-24T22:43:22.309Z,57.60
2019-02-24T22:45:49.557Z,57.60
2019-02-24T22:48:16.958Z,57.50
2019-02-24T22:50:44.247Z,57.00
2019-02-24T22:53:11.565Z,56.60
2019-02-24T22:55:38.828Z,57.20
2019-02-24T22:58:06.265Z,57.10
2019-02-24T23:01:05.898Z,56.80
2019-02-24T23:03:37.065Z,57.00
2019-02-24T23:06:05.378Z,57.30
2019-02-24T23:08:32.872Z,57.20
2019-02-24T23:11:00.215Z,57.40
2019-02-24T23:13:27.502Z,57.00
2019-02-24T23:15:54.863Z,56.70
2019-02-24T23:18:23.295Z,57.10
2019-02-24T23:20:50.597Z,57.10
2019-02-24T23:23:17.871Z,57.60
2019-02-24T23:25:45.297Z,58.20
2019-02-24T23:28:12.626Z,58.70
2019-02-24T23:30:40.029Z,58.40
2019-02-24T23:33:08.451Z,59.00
2019-02-24T23:35:35.733Z,58.80
2019-02-24T23:38:04.294Z,59.30
2019-02-24T23:40:31.701Z,59.30
2019-02-24T23:42:58.993Z,59.00
2019-02-24T23:45:26.317Z,59.10
2019-02-24T23:47:53.617Z,59.40
2019-02-24T23:50:20.890Z,60.20
2019-02-24T23:52:48.180Z,60.00
2019-02-24T23:55:15.434Z,59.70
2019-02-24T23:57:42.751Z,60.00
